sensor_id;sensor_type;location;lat;lon;timestamp;P1;durP1;ratioP1;P2;durP2;ratioP2
58083;SDS011;43882;51.550;11.858;2023-03-04T00:01:22;32.90;;;12.52;;
58083;SDS011;43882;51.550;11.858;2023-03-04T00:03:48;32.42;;;12.60;;
58083;SDS011;43882;51.550;11.858;2023-03-04T00:06:14;32.50;;;12.40;;
58083;SDS011;43882;51.550;11.858;2023-03-04T00:08:40;34.95;;;12.95;;
58083;SDS011;43882;51.550;11.858;2023-03-04T00:11:06;32.50;;;11.68;;
58083;SDS011;43882;51.550;11.858;2023-03-04T00:13:32;31.15;;;12.20;;
58083;SDS011;43882;51.550;11.858;2023-03-04T00:15:58;33.72;;;11.70;;
58083;SDS011;43882;51.550;11.858;2023-03-04T00:18:25;33.72;;;12.23;;
58083;SDS011;43882;51.550;11.858;2023-03-04T00:20:51;38.20;;;14.73;;
58083;SDS011;43882;51.550;11.858;2023-03-04T00:23:17;34.53;;;11.98;;
58083;SDS011;43882;51.550;11.858;2023-03-04T00:25:43;36.10;;;14.18;;
58083;SDS011;43882;51.550;11.858;2023-03-04T00:28:09;36.13;;;13.45;;
58083;SDS011;43882;51.550;11.858;2023-03-04T00:30:35;33.25;;;13.00;;
58083;SDS011;43882;51.550;11.858;2023-03-04T00:33:01;32.40;;;12.23;;
58083;SDS011;43882;51.550;11.858;2023-03-04T00:35:27;32.85;;;12.45;;
58083;SDS011;43882;51.550;11.858;2023-03-04T00:37:53;36.42;;;12.77;;
58083;SDS011;43882;51.550;11.858;2023-03-04T00:40:19;32.15;;;12.65;;
58083;SDS011;43882;51.550;11.858;2023-03-04T00:42:45;32.58;;;12.45;;
58083;SDS011;43882;51.550;11.858;2023-03-04T00:45:11;39.47;;;12.70;;
58083;SDS011;43882;51.550;11.858;2023-03-04T00:47:37;34.05;;;13.50;;
58083;SDS011;43882;51.550;11.858;2023-03-04T00:50:04;32.58;;;12.07;;
58083;SDS011;43882;51.550;11.858;2023-03-04T00:52:30;36.47;;;13.07;;
58083;SDS011;43882;51.550;11.858;2023-03-04T00:54:56;36.55;;;12.43;;
58083;SDS011;43882;51.550;11.858;2023-03-04T00:57:22;34.80;;;12.57;;
58083;SDS011;43882;51.550;11.858;2023-03-04T00:59:48;37.55;;;12.65;;
58083;SDS011;43882;51.550;11.858;2023-03-04T01:02:15;34.90;;;13.48;;
58083;SDS011;43882;51.550;11.858;2023-03-04T01:04:41;33.08;;;13.82;;
58083;SDS011;43882;51.550;11.858;2023-03-04T01:07:07;38.35;;;13.40;;
58083;SDS011;43882;51.550;11.858;2023-03-04T01:09:33;36.15;;;13.73;;
58083;SDS011;43882;51.550;11.858;2023-03-04T01:11:59;42.22;;;15.63;;
58083;SDS011;43882;51.550;11.858;2023-03-04T01:14:25;35.92;;;14.20;;
58083;SDS011;43882;51.550;11.858;2023-03-04T01:16:52;38.78;;;13.60;;
58083;SDS011;43882;51.550;11.858;2023-03-04T01:19:18;40.65;;;14.60;;
58083;SDS011;43882;51.550;11.858;2023-03-04T01:21:44;36.00;;;13.23;;
58083;SDS011;43882;51.550;11.858;2023-03-04T01:24:10;40.47;;;14.77;;
58083;SDS011;43882;51.550;11.858;2023-03-04T01:26:36;40.75;;;15.10;;
58083;SDS011;43882;51.550;11.858;2023-03-04T01:29:02;39.83;;;14.50;;
58083;SDS011;43882;51.550;11.858;2023-03-04T01:31:28;38.00;;;13.65;;
58083;SDS011;43882;51.550;11.858;2023-03-04T01:33:54;40.72;;;14.35;;
58083;SDS011;43882;51.550;11.858;2023-03-04T01:36:21;38.28;;;14.43;;
58083;SDS011;43882;51.550;11.858;2023-03-04T01:38:47;39.13;;;13.93;;
58083;SDS011;43882;51.550;11.858;2023-03-04T01:41:13;40.78;;;14.82;;
58083;SDS011;43882;51.550;11.858;2023-03-04T01:43:43;40.20;;;15.07;;
58083;SDS011;43882;51.550;11.858;2023-03-04T01:46:10;38.70;;;13.68;;
58083;SDS011;43882;51.550;11.858;2023-03-04T01:48:41;40.78;;;13.85;;
58083;SDS011;43882;51.550;11.858;2023-03-04T01:51:10;40.38;;;13.55;;
58083;SDS011;43882;51.550;11.858;2023-03-04T01:53:41;39.88;;;15.43;;
58083;SDS011;43882;51.550;11.858;2023-03-04T01:58:40;38.83;;;14.40;;
58083;SDS011;43882;51.550;11.858;2023-03-04T02:01:06;39.85;;;14.63;;
58083;SDS011;43882;51.550;11.858;2023-03-04T02:03:33;40.45;;;14.38;;
58083;SDS011;43882;51.550;11.858;2023-03-04T02:05:59;37.30;;;13.80;;
58083;SDS011;43882;51.550;11.858;2023-03-04T02:08:25;36.03;;;13.05;;
58083;SDS011;43882;51.550;11.858;2023-03-04T02:10:51;38.80;;;14.45;;
58083;SDS011;43882;51.550;11.858;2023-03-04T02:13:17;39.45;;;13.63;;
58083;SDS011;43882;51.550;11.858;2023-03-04T02:15:44;36.80;;;13.25;;
58083;SDS011;43882;51.550;11.858;2023-03-04T02:18:15;35.53;;;14.18;;
58083;SDS011;43882;51.550;11.858;2023-03-04T02:23:25;37.45;;;14.68;;
58083;SDS011;43882;51.550;11.858;2023-03-04T02:28:40;36.13;;;13.50;;
58083;SDS011;43882;51.550;11.858;2023-03-04T02:31:09;37.25;;;14.20;;
58083;SDS011;43882;51.550;11.858;2023-03-04T02:33:47;36.47;;;14.85;;
58083;SDS011;43882;51.550;11.858;2023-03-04T02:36:13;37.92;;;12.80;;
58083;SDS011;43882;51.550;11.858;2023-03-04T02:38:39;34.88;;;13.95;;
58083;SDS011;43882;51.550;11.858;2023-03-04T02:41:05;33.58;;;12.63;;
58083;SDS011;43882;51.550;11.858;2023-03-04T02:43:38;35.58;;;13.45;;
58083;SDS011;43882;51.550;11.858;2023-03-04T02:46:04;33.05;;;12.93;;
58083;SDS011;43882;51.550;11.858;2023-03-04T02:48:30;34.47;;;12.75;;
58083;SDS011;43882;51.550;11.858;2023-03-04T02:50:56;32.72;;;12.60;;
58083;SDS011;43882;51.550;11.858;2023-03-04T02:53:22;36.30;;;12.70;;
58083;SDS011;43882;51.550;11.858;2023-03-04T02:55:52;35.22;;;12.25;;
58083;SDS011;43882;51.550;11.858;2023-03-04T02:58:18;32.70;;;12.73;;
58083;SDS011;43882;51.550;11.858;2023-03-04T03:00:44;32.85;;;12.85;;
58083;SDS011;43882;51.550;11.858;2023-03-04T03:03:11;32.13;;;13.18;;
58083;SDS011;43882;51.550;11.858;2023-03-04T03:05:37;32.47;;;12.40;;
58083;SDS011;43882;51.550;11.858;2023-03-04T03:08:03;27.77;;;11.25;;
58083;SDS011;43882;51.550;11.858;2023-03-04T03:10:29;31.08;;;12.35;;
58083;SDS011;43882;51.550;11.858;2023-03-04T03:12:56;32.55;;;10.90;;
58083;SDS011;43882;51.550;11.858;2023-03-04T03:15:22;33.35;;;12.43;;
58083;SDS011;43882;51.550;11.858;2023-03-04T03:17:48;31.27;;;11.38;;
58083;SDS011;43882;51.550;11.858;2023-03-04T03:20:14;32.25;;;11.60;;
58083;SDS011;43882;51.550;11.858;2023-03-04T03:22:41;33.47;;;12.40;;
58083;SDS011;43882;51.550;11.858;2023-03-04T03:25:07;32.22;;;13.18;;
58083;SDS011;43882;51.550;11.858;2023-03-04T03:27:34;33.53;;;12.95;;
58083;SDS011;43882;51.550;11.858;2023-03-04T03:30:00;29.35;;;9.80;;
58083;SDS011;43882;51.550;11.858;2023-03-04T03:32:27;31.00;;;11.57;;
58083;SDS011;43882;51.550;11.858;2023-03-04T03:34:53;32.42;;;10.20;;
58083;SDS011;43882;51.550;11.858;2023-03-04T03:37:19;32.15;;;10.80;;
58083;SDS011;43882;51.550;11.858;2023-03-04T03:39:46;30.70;;;10.55;;
58083;SDS011;43882;51.550;11.858;2023-03-04T03:42:12;30.65;;;10.07;;
58083;SDS011;43882;51.550;11.858;2023-03-04T03:44:38;29.33;;;10.73;;
58083;SDS011;43882;51.550;11.858;2023-03-04T03:47:04;26.17;;;10.05;;
58083;SDS011;43882;51.550;11.858;2023-03-04T03:49:30;26.55;;;9.52;;
58083;SDS011;43882;51.550;11.858;2023-03-04T03:51:56;29.60;;;10.05;;
58083;SDS011;43882;51.550;11.858;2023-03-04T03:54:22;28.38;;;10.13;;
58083;SDS011;43882;51.550;11.858;2023-03-04T03:56:48;30.67;;;10.07;;
58083;SDS011;43882;51.550;11.858;2023-03-04T03:59:14;25.35;;;10.05;;
58083;SDS011;43882;51.550;11.858;2023-03-04T04:01:40;29.25;;;10.50;;
58083;SDS011;43882;51.550;11.858;2023-03-04T04:04:06;27.02;;;9.90;;
58083;SDS011;43882;51.550;11.858;2023-03-04T04:06:33;29.42;;;9.65;;
58083;SDS011;43882;51.550;11.858;2023-03-04T04:08:59;27.52;;;9.70;;
58083;SDS011;43882;51.550;11.858;2023-03-04T04:11:25;26.27;;;8.95;;
58083;SDS011;43882;51.550;11.858;2023-03-04T04:13:51;29.70;;;9.52;;
58083;SDS011;43882;51.550;11.858;2023-03-04T04:16:18;26.95;;;9.13;;
58083;SDS011;43882;51.550;11.858;2023-03-04T04:18:44;28.42;;;9.93;;
58083;SDS011;43882;51.550;11.858;2023-03-04T04:21:10;28.65;;;9.60;;
58083;SDS011;43882;51.550;11.858;2023-03-04T04:23:36;29.13;;;9.98;;
58083;SDS011;43882;51.550;11.858;2023-03-04T04:26:02;27.58;;;8.68;;
58083;SDS011;43882;51.550;11.858;2023-03-04T04:28:28;25.55;;;9.30;;
58083;SDS011;43882;51.550;11.858;2023-03-04T04:30:54;25.70;;;9.15;;
58083;SDS011;43882;51.550;11.858;2023-03-04T04:33:20;27.45;;;8.93;;
58083;SDS011;43882;51.550;11.858;2023-03-04T04:35:46;24.00;;;8.65;;
58083;SDS011;43882;51.550;11.858;2023-03-04T04:38:12;26.35;;;10.23;;
58083;SDS011;43882;51.550;11.858;2023-03-04T04:40:39;29.33;;;9.85;;
58083;SDS011;43882;51.550;11.858;2023-03-04T04:43:05;29.33;;;10.23;;
58083;SDS011;43882;51.550;11.858;2023-03-04T04:45:31;27.65;;;9.15;;
58083;SDS011;43882;51.550;11.858;2023-03-04T04:47:57;25.05;;;8.82;;
58083;SDS011;43882;51.550;11.858;2023-03-04T04:50:23;27.77;;;9.63;;
58083;SDS011;43882;51.550;11.858;2023-03-04T04:52:49;25.73;;;8.88;;
58083;SDS011;43882;51.550;11.858;2023-03-04T04:55:16;27.20;;;9.40;;
58083;SDS011;43882;51.550;11.858;2023-03-04T04:57:42;29.58;;;10.45;;
58083;SDS011;43882;51.550;11.858;2023-03-04T05:00:09;24.50;;;8.75;;
58083;SDS011;43882;51.550;11.858;2023-03-04T05:02:35;26.67;;;10.27;;
58083;SDS011;43882;51.550;11.858;2023-03-04T05:05:03;29.48;;;9.27;;
58083;SDS011;43882;51.550;11.858;2023-03-04T05:07:29;31.10;;;10.20;;
58083;SDS011;43882;51.550;11.858;2023-03-04T05:09:55;25.98;;;9.48;;
58083;SDS011;43882;51.550;11.858;2023-03-04T05:12:21;28.13;;;9.55;;
58083;SDS011;43882;51.550;11.858;2023-03-04T05:14:47;26.23;;;9.57;;
58083;SDS011;43882;51.550;11.858;2023-03-04T05:17:13;28.52;;;10.07;;
58083;SDS011;43882;51.550;11.858;2023-03-04T05:19:40;28.60;;;10.32;;
58083;SDS011;43882;51.550;11.858;2023-03-04T05:22:06;32.17;;;9.98;;
58083;SDS011;43882;51.550;11.858;2023-03-04T05:24:32;26.27;;;8.93;;
58083;SDS011;43882;51.550;11.858;2023-03-04T05:26:59;27.08;;;9.43;;
58083;SDS011;43882;51.550;11.858;2023-03-04T05:29:25;29.70;;;10.10;;
58083;SDS011;43882;51.550;11.858;2023-03-04T05:31:51;28.27;;;9.70;;
58083;SDS011;43882;51.550;11.858;2023-03-04T05:34:18;29.25;;;9.60;;
58083;SDS011;43882;51.550;11.858;2023-03-04T05:36:44;27.73;;;9.30;;
58083;SDS011;43882;51.550;11.858;2023-03-04T05:39:10;26.58;;;9.63;;
58083;SDS011;43882;51.550;11.858;2023-03-04T05:41:36;28.33;;;9.18;;
58083;SDS011;43882;51.550;11.858;2023-03-04T05:44:02;25.00;;;9.07;;
58083;SDS011;43882;51.550;11.858;2023-03-04T05:46:28;27.92;;;8.63;;
58083;SDS011;43882;51.550;11.858;2023-03-04T05:48:54;30.33;;;9.18;;
58083;SDS011;43882;51.550;11.858;2023-03-04T05:51:21;25.75;;;8.75;;
58083;SDS011;43882;51.550;11.858;2023-03-04T05:53:47;24.88;;;7.82;;
58083;SDS011;43882;51.550;11.858;2023-03-04T05:56:14;24.20;;;7.78;;
58083;SDS011;43882;51.550;11.858;2023-03-04T05:58:42;23.65;;;7.63;;
58083;SDS011;43882;51.550;11.858;2023-03-04T06:01:09;25.50;;;8.73;;
58083;SDS011;43882;51.550;11.858;2023-03-04T06:03:35;30.27;;;9.00;;
58083;SDS011;43882;51.550;11.858;2023-03-04T06:06:01;25.98;;;9.00;;
58083;SDS011;43882;51.550;11.858;2023-03-04T06:08:28;30.10;;;10.35;;
58083;SDS011;43882;51.550;11.858;2023-03-04T06:10:55;25.67;;;9.40;;
58083;SDS011;43882;51.550;11.858;2023-03-04T06:13:22;26.38;;;9.05;;
58083;SDS011;43882;51.550;11.858;2023-03-04T06:15:53;27.60;;;9.52;;
58083;SDS011;43882;51.550;11.858;2023-03-04T06:18:20;24.25;;;9.02;;
58083;SDS011;43882;51.550;11.858;2023-03-04T06:20:46;26.15;;;9.30;;
58083;SDS011;43882;51.550;11.858;2023-03-04T06:23:12;30.80;;;10.18;;
58083;SDS011;43882;51.550;11.858;2023-03-04T06:25:38;28.17;;;9.57;;
58083;SDS011;43882;51.550;11.858;2023-03-04T06:28:04;28.25;;;9.38;;
58083;SDS011;43882;51.550;11.858;2023-03-04T06:30:31;23.95;;;6.30;;
58083;SDS011;43882;51.550;11.858;2023-03-04T06:32:57;17.17;;;5.03;;
58083;SDS011;43882;51.550;11.858;2023-03-04T06:35:23;19.20;;;4.05;;
58083;SDS011;43882;51.550;11.858;2023-03-04T06:37:49;18.75;;;4.13;;
58083;SDS011;43882;51.550;11.858;2023-03-04T06:40:15;20.50;;;4.85;;
58083;SDS011;43882;51.550;11.858;2023-03-04T06:42:41;16.88;;;3.47;;
58083;SDS011;43882;51.550;11.858;2023-03-04T06:45:07;15.93;;;4.05;;
58083;SDS011;43882;51.550;11.858;2023-03-04T06:47:34;15.75;;;3.72;;
58083;SDS011;43882;51.550;11.858;2023-03-04T06:50:00;16.15;;;3.20;;
58083;SDS011;43882;51.550;11.858;2023-03-04T06:52:27;16.17;;;3.70;;
58083;SDS011;43882;51.550;11.858;2023-03-04T06:54:53;16.42;;;3.25;;
58083;SDS011;43882;51.550;11.858;2023-03-04T06:57:20;16.00;;;3.22;;
58083;SDS011;43882;51.550;11.858;2023-03-04T06:59:46;16.17;;;3.38;;
58083;SDS011;43882;51.550;11.858;2023-03-04T07:02:12;15.25;;;3.50;;
58083;SDS011;43882;51.550;11.858;2023-03-04T07:04:38;14.88;;;3.38;;
58083;SDS011;43882;51.550;11.858;2023-03-04T07:07:04;17.02;;;3.60;;
58083;SDS011;43882;51.550;11.858;2023-03-04T07:09:31;15.20;;;2.90;;
58083;SDS011;43882;51.550;11.858;2023-03-04T07:11:57;15.57;;;3.55;;
58083;SDS011;43882;51.550;11.858;2023-03-04T07:14:23;13.30;;;3.05;;
58083;SDS011;43882;51.550;11.858;2023-03-04T07:16:49;14.15;;;3.13;;
58083;SDS011;43882;51.550;11.858;2023-03-04T07:19:15;19.90;;;4.72;;
58083;SDS011;43882;51.550;11.858;2023-03-04T07:21:41;18.25;;;5.00;;
58083;SDS011;43882;51.550;11.858;2023-03-04T07:24:08;17.52;;;4.63;;
58083;SDS011;43882;51.550;11.858;2023-03-04T07:26:34;19.45;;;5.22;;
58083;SDS011;43882;51.550;11.858;2023-03-04T07:29:02;20.33;;;5.57;;
58083;SDS011;43882;51.550;11.858;2023-03-04T07:31:29;22.02;;;6.25;;
58083;SDS011;43882;51.550;11.858;2023-03-04T07:33:57;20.15;;;5.70;;
58083;SDS011;43882;51.550;11.858;2023-03-04T07:36:24;18.80;;;5.60;;
58083;SDS011;43882;51.550;11.858;2023-03-04T07:38:51;20.15;;;5.78;;
58083;SDS011;43882;51.550;11.858;2023-03-04T07:41:18;23.45;;;6.15;;
58083;SDS011;43882;51.550;11.858;2023-03-04T07:43:45;20.75;;;5.95;;
58083;SDS011;43882;51.550;11.858;2023-03-04T07:46:11;22.05;;;5.85;;
58083;SDS011;43882;51.550;11.858;2023-03-04T07:48:37;19.05;;;5.05;;
58083;SDS011;43882;51.550;11.858;2023-03-04T07:56:04;19.20;;;4.95;;
58083;SDS011;43882;51.550;11.858;2023-03-04T07:58:31;22.00;;;6.15;;
58083;SDS011;43882;51.550;11.858;2023-03-04T08:00:57;17.23;;;4.82;;
58083;SDS011;43882;51.550;11.858;2023-03-04T08:03:23;19.92;;;4.97;;
58083;SDS011;43882;51.550;11.858;2023-03-04T08:05:50;18.33;;;5.35;;
58083;SDS011;43882;51.550;11.858;2023-03-04T08:08:16;21.30;;;5.30;;
58083;SDS011;43882;51.550;11.858;2023-03-04T08:10:42;18.33;;;5.13;;
58083;SDS011;43882;51.550;11.858;2023-03-04T08:13:09;19.58;;;6.00;;
58083;SDS011;43882;51.550;11.858;2023-03-04T08:15:38;20.50;;;5.95;;
58083;SDS011;43882;51.550;11.858;2023-03-04T08:18:04;20.67;;;5.40;;
58083;SDS011;43882;51.550;11.858;2023-03-04T08:20:30;18.25;;;4.82;;
58083;SDS011;43882;51.550;11.858;2023-03-04T08:22:56;19.38;;;5.60;;
58083;SDS011;43882;51.550;11.858;2023-03-04T08:25:23;19.00;;;4.70;;
58083;SDS011;43882;51.550;11.858;2023-03-04T08:27:49;20.83;;;5.38;;
58083;SDS011;43882;51.550;11.858;2023-03-04T08:30:15;22.17;;;5.45;;
58083;SDS011;43882;51.550;11.858;2023-03-04T08:32:41;21.60;;;5.78;;
58083;SDS011;43882;51.550;11.858;2023-03-04T08:35:07;19.58;;;5.35;;
58083;SDS011;43882;51.550;11.858;2023-03-04T08:37:33;19.65;;;5.78;;
58083;SDS011;43882;51.550;11.858;2023-03-04T08:39:59;17.90;;;5.80;;
58083;SDS011;43882;51.550;11.858;2023-03-04T08:42:25;18.60;;;5.95;;
58083;SDS011;43882;51.550;11.858;2023-03-04T08:44:51;19.60;;;5.68;;
58083;SDS011;43882;51.550;11.858;2023-03-04T08:47:17;20.80;;;5.78;;
58083;SDS011;43882;51.550;11.858;2023-03-04T08:49:43;19.50;;;5.40;;
58083;SDS011;43882;51.550;11.858;2023-03-04T08:52:10;20.23;;;5.72;;
58083;SDS011;43882;51.550;11.858;2023-03-04T08:54:36;19.90;;;5.85;;
58083;SDS011;43882;51.550;11.858;2023-03-04T08:57:02;20.35;;;5.72;;
58083;SDS011;43882;51.550;11.858;2023-03-04T08:59:28;21.02;;;5.70;;
58083;SDS011;43882;51.550;11.858;2023-03-04T09:01:54;22.92;;;10.45;;
58083;SDS011;43882;51.550;11.858;2023-03-04T09:04:20;24.52;;;8.88;;
58083;SDS011;43882;51.550;11.858;2023-03-04T09:06:46;20.67;;;11.27;;
58083;SDS011;43882;51.550;11.858;2023-03-04T09:09:12;17.67;;;6.70;;
58083;SDS011;43882;51.550;11.858;2023-03-04T09:11:38;10.43;;;2.60;;
58083;SDS011;43882;51.550;11.858;2023-03-04T09:14:04;9.75;;;2.45;;
58083;SDS011;43882;51.550;11.858;2023-03-04T09:16:30;9.52;;;2.47;;
58083;SDS011;43882;51.550;11.858;2023-03-04T09:18:57;10.90;;;2.50;;
58083;SDS011;43882;51.550;11.858;2023-03-04T09:21:23;11.90;;;2.40;;
58083;SDS011;43882;51.550;11.858;2023-03-04T09:23:49;11.00;;;2.25;;
58083;SDS011;43882;51.550;11.858;2023-03-04T09:26:18;12.00;;;2.90;;
58083;SDS011;43882;51.550;11.858;2023-03-04T09:28:54;9.73;;;2.25;;
58083;SDS011;43882;51.550;11.858;2023-03-04T09:31:22;11.70;;;2.60;;
58083;SDS011;43882;51.550;11.858;2023-03-04T09:33:48;9.00;;;2.20;;
58083;SDS011;43882;51.550;11.858;2023-03-04T09:36:15;8.70;;;2.35;;
58083;SDS011;43882;51.550;11.858;2023-03-04T09:38:41;11.05;;;2.35;;
58083;SDS011;43882;51.550;11.858;2023-03-04T09:41:08;10.02;;;2.50;;
58083;SDS011;43882;51.550;11.858;2023-03-04T09:43:43;9.77;;;2.70;;
58083;SDS011;43882;51.550;11.858;2023-03-04T09:46:14;11.00;;;2.70;;
58083;SDS011;43882;51.550;11.858;2023-03-04T09:48:50;11.25;;;3.33;;
58083;SDS011;43882;51.550;11.858;2023-03-04T09:51:21;15.70;;;4.63;;
58083;SDS011;43882;51.550;11.858;2023-03-04T09:56:32;8.20;;;2.22;;
58083;SDS011;43882;51.550;11.858;2023-03-04T10:04:13;9.13;;;2.70;;
58083;SDS011;43882;51.550;11.858;2023-03-04T10:06:41;11.30;;;2.50;;
58083;SDS011;43882;51.550;11.858;2023-03-04T10:09:13;10.50;;;2.45;;
58083;SDS011;43882;51.550;11.858;2023-03-04T10:11:47;8.13;;;2.13;;
58083;SDS011;43882;51.550;11.858;2023-03-04T10:14:44;10.48;;;2.53;;
58083;SDS011;43882;51.550;11.858;2023-03-04T10:19:50;9.15;;;2.90;;
58083;SDS011;43882;51.550;11.858;2023-03-04T10:25:06;13.23;;;3.63;;
58083;SDS011;43882;51.550;11.858;2023-03-04T10:33:15;8.90;;;2.40;;
58083;SDS011;43882;51.550;11.858;2023-03-04T10:35:44;7.88;;;2.20;;
58083;SDS011;43882;51.550;11.858;2023-03-04T10:38:14;10.02;;;2.45;;
58083;SDS011;43882;51.550;11.858;2023-03-04T10:40:42;10.30;;;2.47;;
58083;SDS011;43882;51.550;11.858;2023-03-04T10:43:13;9.93;;;2.50;;
58083;SDS011;43882;51.550;11.858;2023-03-04T10:45:40;10.13;;;2.67;;
58083;SDS011;43882;51.550;11.858;2023-03-04T10:48:14;14.43;;;2.85;;
58083;SDS011;43882;51.550;11.858;2023-03-04T10:50:52;12.65;;;2.85;;
58083;SDS011;43882;51.550;11.858;2023-03-04T10:53:30;11.57;;;2.88;;
58083;SDS011;43882;51.550;11.858;2023-03-04T10:55:57;11.85;;;2.92;;
58083;SDS011;43882;51.550;11.858;2023-03-04T10:58:24;12.82;;;3.10;;
58083;SDS011;43882;51.550;11.858;2023-03-04T11:01:00;12.35;;;2.75;;
58083;SDS011;43882;51.550;11.858;2023-03-04T11:03:29;13.05;;;3.13;;
58083;SDS011;43882;51.550;11.858;2023-03-04T11:06:03;13.40;;;2.97;;
58083;SDS011;43882;51.550;11.858;2023-03-04T11:08:30;14.02;;;3.83;;
58083;SDS011;43882;51.550;11.858;2023-03-04T11:10:56;13.43;;;3.67;;
58083;SDS011;43882;51.550;11.858;2023-03-04T11:13:23;14.77;;;4.10;;
58083;SDS011;43882;51.550;11.858;2023-03-04T11:20:58;17.93;;;4.30;;
58083;SDS011;43882;51.550;11.858;2023-03-04T11:23:42;15.43;;;3.63;;
58083;SDS011;43882;51.550;11.858;2023-03-04T11:26:16;13.93;;;2.90;;
58083;SDS011;43882;51.550;11.858;2023-03-04T11:28:46;15.13;;;3.40;;
58083;SDS011;43882;51.550;11.858;2023-03-04T11:31:27;14.73;;;3.30;;
58083;SDS011;43882;51.550;11.858;2023-03-04T11:34:01;11.52;;;2.55;;
58083;SDS011;43882;51.550;11.858;2023-03-04T11:36:50;13.38;;;2.90;;
58083;SDS011;43882;51.550;11.858;2023-03-04T11:39:43;12.43;;;2.90;;
58083;SDS011;43882;51.550;11.858;2023-03-04T11:42:36;15.40;;;3.40;;
58083;SDS011;43882;51.550;11.858;2023-03-04T11:45:13;16.77;;;4.07;;
58083;SDS011;43882;51.550;11.858;2023-03-04T11:47:47;12.80;;;3.17;;
58083;SDS011;43882;51.550;11.858;2023-03-04T11:50:22;13.70;;;3.13;;
58083;SDS011;43882;51.550;11.858;2023-03-04T11:53:19;14.18;;;3.40;;
58083;SDS011;43882;51.550;11.858;2023-03-04T11:58:44;13.90;;;3.30;;
58083;SDS011;43882;51.550;11.858;2023-03-04T12:01:43;10.70;;;3.00;;
58083;SDS011;43882;51.550;11.858;2023-03-04T12:07:05;13.75;;;3.40;;
58083;SDS011;43882;51.550;11.858;2023-03-04T12:12:25;12.68;;;3.10;;
58083;SDS011;43882;51.550;11.858;2023-03-04T12:20:58;14.68;;;3.72;;
58083;SDS011;43882;51.550;11.858;2023-03-04T12:24:40;14.13;;;3.08;;
58083;SDS011;43882;51.550;11.858;2023-03-04T12:26:59;13.00;;;3.00;;
58083;SDS011;43882;51.550;11.858;2023-03-04T12:35:29;15.80;;;3.65;;
58083;SDS011;43882;51.550;11.858;2023-03-04T12:41:28;13.38;;;3.13;;
58083;SDS011;43882;51.550;11.858;2023-03-04T12:44:03;13.75;;;3.10;;
58083;SDS011;43882;51.550;11.858;2023-03-04T12:52:33;18.15;;;3.92;;
58083;SDS011;43882;51.550;11.858;2023-03-04T12:55:14;14.55;;;3.55;;
58083;SDS011;43882;51.550;11.858;2023-03-04T12:57:41;14.00;;;3.38;;
58083;SDS011;43882;51.550;11.858;2023-03-04T13:00:17;15.48;;;3.88;;
58083;SDS011;43882;51.550;11.858;2023-03-04T13:05:59;18.83;;;5.07;;
58083;SDS011;43882;51.550;11.858;2023-03-04T13:14:00;20.95;;;8.00;;
58083;SDS011;43882;51.550;11.858;2023-03-04T13:25:03;17.15;;;5.40;;
58083;SDS011;43882;51.550;11.858;2023-03-04T13:31:03;15.73;;;3.72;;
58083;SDS011;43882;51.550;11.858;2023-03-04T13:36:01;15.23;;;4.32;;
58083;SDS011;43882;51.550;11.858;2023-03-04T13:47:16;18.52;;;6.00;;
58083;SDS011;43882;51.550;11.858;2023-03-04T13:49:44;17.27;;;4.80;;
58083;SDS011;43882;51.550;11.858;2023-03-04T13:55:32;16.05;;;4.50;;
58083;SDS011;43882;51.550;11.858;2023-03-04T13:58:00;17.38;;;4.95;;
58083;SDS011;43882;51.550;11.858;2023-03-04T14:00:41;18.63;;;5.22;;
58083;SDS011;43882;51.550;11.858;2023-03-04T14:03:13;18.70;;;5.30;;
58083;SDS011;43882;51.550;11.858;2023-03-04T14:05:44;18.63;;;5.13;;
58083;SDS011;43882;51.550;11.858;2023-03-04T14:08:19;18.85;;;5.95;;
58083;SDS011;43882;51.550;11.858;2023-03-04T14:10:54;20.33;;;6.53;;
58083;SDS011;43882;51.550;11.858;2023-03-04T14:13:21;17.50;;;5.15;;
58083;SDS011;43882;51.550;11.858;2023-03-04T14:15:57;19.17;;;6.38;;
58083;SDS011;43882;51.550;11.858;2023-03-04T14:18:24;14.75;;;4.55;;
58083;SDS011;43882;51.550;11.858;2023-03-04T14:20:52;15.30;;;4.20;;
58083;SDS011;43882;51.550;11.858;2023-03-04T14:23:27;16.25;;;4.22;;
58083;SDS011;43882;51.550;11.858;2023-03-04T14:26:04;17.13;;;5.50;;
58083;SDS011;43882;51.550;11.858;2023-03-04T14:28:40;17.27;;;4.50;;
58083;SDS011;43882;51.550;11.858;2023-03-04T14:31:17;17.63;;;4.30;;
58083;SDS011;43882;51.550;11.858;2023-03-04T14:33:46;15.65;;;4.57;;
58083;SDS011;43882;51.550;11.858;2023-03-04T14:36:15;16.05;;;3.95;;
58083;SDS011;43882;51.550;11.858;2023-03-04T14:41:25;16.88;;;4.15;;
58083;SDS011;43882;51.550;11.858;2023-03-04T14:46:34;18.80;;;5.35;;
58083;SDS011;43882;51.550;11.858;2023-03-04T14:49:04;13.45;;;3.10;;
58083;SDS011;43882;51.550;11.858;2023-03-04T14:53:57;13.60;;;2.88;;
58083;SDS011;43882;51.550;11.858;2023-03-04T14:56:27;9.23;;;2.40;;
58083;SDS011;43882;51.550;11.858;2023-03-04T14:58:55;10.35;;;2.60;;
58083;SDS011;43882;51.550;11.858;2023-03-04T15:01:27;15.43;;;3.38;;
58083;SDS011;43882;51.550;11.858;2023-03-04T15:03:56;11.02;;;2.50;;
58083;SDS011;43882;51.550;11.858;2023-03-04T15:06:36;10.60;;;2.85;;
58083;SDS011;43882;51.550;11.858;2023-03-04T15:09:07;10.32;;;2.28;;
58083;SDS011;43882;51.550;11.858;2023-03-04T15:20:00;11.20;;;2.58;;
58083;SDS011;43882;51.550;11.858;2023-03-04T15:25:11;15.93;;;3.15;;
58083;SDS011;43882;51.550;11.858;2023-03-04T15:27:42;14.27;;;3.10;;
58083;SDS011;43882;51.550;11.858;2023-03-04T15:30:31;16.52;;;3.40;;
58083;SDS011;43882;51.550;11.858;2023-03-04T15:32:57;12.80;;;2.72;;
58083;SDS011;43882;51.550;11.858;2023-03-04T15:35:26;8.32;;;2.40;;
58083;SDS011;43882;51.550;11.858;2023-03-04T15:37:54;10.70;;;2.38;;
58083;SDS011;43882;51.550;11.858;2023-03-04T15:40:26;11.43;;;2.25;;
58083;SDS011;43882;51.550;11.858;2023-03-04T15:42:53;13.95;;;2.90;;
58083;SDS011;43882;51.550;11.858;2023-03-04T15:45:22;7.40;;;2.17;;
58083;SDS011;43882;51.550;11.858;2023-03-04T15:47:49;10.07;;;2.20;;
58083;SDS011;43882;51.550;11.858;2023-03-04T15:50:16;12.80;;;2.70;;
58083;SDS011;43882;51.550;11.858;2023-03-04T15:52:43;11.30;;;2.40;;
58083;SDS011;43882;51.550;11.858;2023-03-04T15:55:16;12.68;;;2.67;;
58083;SDS011;43882;51.550;11.858;2023-03-04T15:57:44;10.88;;;2.72;;
58083;SDS011;43882;51.550;11.858;2023-03-04T16:00:12;8.13;;;2.10;;
58083;SDS011;43882;51.550;11.858;2023-03-04T16:02:40;6.63;;;2.25;;
58083;SDS011;43882;51.550;11.858;2023-03-04T16:05:06;13.43;;;2.72;;
58083;SDS011;43882;51.550;11.858;2023-03-04T16:07:33;10.35;;;2.53;;
58083;SDS011;43882;51.550;11.858;2023-03-04T16:10:00;9.45;;;2.38;;
58083;SDS011;43882;51.550;11.858;2023-03-04T16:12:42;10.27;;;2.38;;
58083;SDS011;43882;51.550;11.858;2023-03-04T16:15:27;11.82;;;2.72;;
58083;SDS011;43882;51.550;11.858;2023-03-04T16:17:54;11.15;;;2.90;;
58083;SDS011;43882;51.550;11.858;2023-03-04T16:20:22;15.48;;;3.88;;
58083;SDS011;43882;51.550;11.858;2023-03-04T16:22:50;12.10;;;2.90;;
58083;SDS011;43882;51.550;11.858;2023-03-04T16:25:18;12.18;;;2.70;;
58083;SDS011;43882;51.550;11.858;2023-03-04T16:27:45;9.90;;;2.33;;